createdAt,value
2022-08-05T00:01:21.030Z,995.78
2022-08-05T00:11:23.859Z,995.72
2022-08-05T00:21:31.178Z,995.66
2022-08-05T00:32:10.247Z,995.66
2022-08-05T00:41:55.953Z,995.64
2022-08-05T00:52:03.124Z,995.62
2022-08-05T01:02:09.031Z,995.63
2022-08-05T01:12:18.903Z,995.55
2022-08-05T01:22:28.116Z,995.46
2022-08-05T01:34:08.478Z,995.50
2022-08-05T01:44:15.335Z,995.55
2022-08-05T01:54:24.644Z,995.48
2022-08-05T02:04:32.790Z,995.44
2022-08-05T02:14:39.880Z,995.38
2022-08-05T02:24:51.302Z,995.39
2022-08-05T02:34:58.596Z,995.48
2022-08-05T02:45:08.626Z,995.47
2022-08-05T02:55:17.592Z,995.55
2022-08-05T03:06:53.575Z,995.40
2022-08-05T03:15:39.865Z,995.44
2022-08-05T03:26:04.432Z,995.53
2022-08-05T03:35:58.688Z,995.63
2022-08-05T03:46:04.616Z,995.85
2022-08-05T03:56:17.997Z,996.97
2022-08-05T04:06:23.657Z,996.91
2022-08-05T04:16:32.413Z,996.95
2022-08-05T04:26:38.927Z,996.99
2022-08-05T04:36:50.083Z,996.92
2022-08-05T04:46:56.492Z,996.85
2022-08-05T04:57:02.997Z,996.88
2022-08-05T05:07:09.709Z,996.68
2022-08-05T05:17:19.899Z,996.64
2022-08-05T05:27:44.676Z,996.70
2022-08-05T05:38:00.039Z,996.60
2022-08-05T05:48:06.680Z,997.12
2022-08-05T05:58:01.979Z,997.63
2022-08-05T06:08:13.260Z,997.74
2022-08-05T06:18:20.706Z,997.61
2022-08-05T06:28:31.909Z,997.90
2022-08-05T06:38:40.386Z,997.86
2022-08-05T06:48:55.932Z,997.77
2022-08-05T06:59:09.372Z,997.83
2022-08-05T07:09:15.931Z,997.89
2022-08-05T07:20:10.537Z,998.00
2022-08-05T07:30:24.008Z,998.13
2022-08-05T07:40:04.556Z,998.08
2022-08-05T07:49:56.554Z,998.17
2022-08-05T08:00:05.452Z,997.91
2022-08-05T08:10:16.848Z,997.98
2022-08-05T08:20:59.740Z,997.84
2022-08-05T08:30:47.798Z,997.62
2022-08-05T08:40:51.675Z,997.60
2022-08-05T08:51:22.033Z,997.57
2022-08-05T09:01:15.561Z,997.45
2022-08-05T09:11:50.706Z,997.41
2022-08-05T09:22:23.170Z,997.45
2022-08-05T09:32:40.220Z,997.40
2022-08-05T09:41:56.238Z,997.48
2022-08-05T09:52:03.212Z,997.35
2022-08-05T10:02:10.172Z,997.15
2022-08-05T10:12:30.238Z,997.04
2022-08-05T10:22:35.130Z,996.97
2022-08-05T10:32:51.473Z,996.93
2022-08-05T10:42:54.429Z,996.77
2022-08-05T10:53:01.139Z,996.66
2022-08-05T11:03:24.317Z,996.66
2022-08-05T11:13:20.160Z,996.61
2022-08-05T11:23:33.378Z,996.52
2022-08-05T11:33:46.592Z,996.65
2022-08-05T11:44:05.579Z,996.64
2022-08-05T11:54:02.345Z,996.75
2022-08-05T12:04:10.441Z,996.90
2022-08-05T12:14:20.107Z,996.93
2022-08-05T12:24:30.632Z,997.06
2022-08-05T12:34:37.182Z,997.09
2022-08-05T12:44:43.798Z,997.16
2022-08-05T12:54:50.011Z,997.03
2022-08-05T13:04:56.073Z,997.02
2022-08-05T13:15:06.236Z,997.29
2022-08-05T13:25:19.242Z,997.25
2022-08-05T13:35:43.365Z,997.09
2022-08-05T13:45:38.637Z,997.28
2022-08-05T13:55:50.137Z,997.34
2022-08-05T14:06:25.065Z,997.37
2022-08-05T14:16:16.783Z,997.58
2022-08-05T14:26:38.382Z,997.64
2022-08-05T14:36:34.045Z,997.71
2022-08-05T14:46:40.177Z,997.73
2022-08-05T14:56:46.852Z,997.80
2022-08-05T15:06:53.327Z,997.82
2022-08-05T15:16:59.820Z,998.03
2022-08-05T15:27:09.092Z,998.16
2022-08-05T15:37:19.351Z,998.27
2022-08-05T15:47:26.729Z,998.60
2022-08-05T15:57:33.270Z,998.92
2022-08-05T16:07:46.443Z,999.23
2022-08-05T16:17:58.070Z,999.30
2022-08-05T16:28:05.712Z,999.79
2022-08-05T16:38:23.747Z,999.89
2022-08-05T16:48:33.540Z,1000.24
2022-08-05T16:58:36.825Z,1000.47
2022-08-05T17:08:53.111Z,1000.54
2022-08-05T17:18:54.950Z,1000.67
2022-08-05T17:29:01.043Z,1000.90
2022-08-05T17:40:31.644Z,1001.29
2022-08-05T17:50:37.291Z,1001.46
2022-08-05T18:00:45.396Z,1001.65
2022-08-05T18:10:54.116Z,1001.82
2022-08-05T18:21:00.640Z,1002.16
2022-08-05T18:31:08.896Z,1002.19
2022-08-05T18:41:53.710Z,1002.45
2022-08-05T18:52:05.024Z,1002.60
2022-08-05T19:01:48.175Z,1002.65
2022-08-05T19:12:00.628Z,1002.65
2022-08-05T19:22:03.512Z,1002.84
2022-08-05T19:32:11.385Z,1003.13
2022-08-05T19:42:18.175Z,1003.61
2022-08-05T19:52:31.154Z,1003.45
2022-08-05T20:02:35.829Z,1003.97
2022-08-05T20:12:47.808Z,1003.62
2022-08-05T20:22:53.332Z,1003.80
2022-08-05T20:32:59.343Z,1004.80
2022-08-05T20:43:05.928Z,1004.31
2022-08-05T20:53:15.838Z,1004.06
2022-08-05T21:03:25.423Z,1004.24
2022-08-05T21:13:47.869Z,1004.35
2022-08-05T21:23:44.474Z,1005.03
2022-08-05T21:33:51.095Z,1004.68
2022-08-05T21:44:01.815Z,1004.61
2022-08-05T21:54:09.528Z,1004.99
2022-08-05T22:04:15.647Z,1004.87
2022-08-05T22:14:35.755Z,1004.97
2022-08-05T22:24:40.076Z,1005.18
2022-08-05T22:34:46.116Z,1005.21
2022-08-05T22:44:56.971Z,1005.06
2022-08-05T22:55:04.170Z,1005.01
2022-08-05T23:05:12.035Z,1005.13
2022-08-05T23:15:18.215Z,1005.14
2022-08-05T23:25:51.905Z,1005.28
2022-08-05T23:35:36.502Z,1005.35
2022-08-05T23:45:43.959Z,1005.61
2022-08-05T23:55:49.461Z,1005.66
